sensor_id;sensor_type;location;lat;lon;timestamp;P1;durP1;ratioP1;P2;durP2;ratioP2
58615;SDS011;44385;51.992;4.206;2023-08-01T00:02:21;12.43;;;4.10;;
58615;SDS011;44385;51.992;4.206;2023-08-01T00:04:48;20.38;;;5.63;;
58615;SDS011;44385;51.992;4.206;2023-08-01T00:07:14;11.43;;;4.05;;
58615;SDS011;44385;51.992;4.206;2023-08-01T00:09:41;12.55;;;3.70;;
58615;SDS011;44385;51.992;4.206;2023-08-01T00:12:07;9.23;;;4.22;;
58615;SDS011;44385;51.992;4.206;2023-08-01T00:14:33;12.00;;;3.65;;
58615;SDS011;44385;51.992;4.206;2023-08-01T00:17:00;12.00;;;3.70;;
58615;SDS011;44385;51.992;4.206;2023-08-01T00:19:28;7.07;;;2.95;;
58615;SDS011;44385;51.992;4.206;2023-08-01T00:21:56;10.30;;;3.65;;
58615;SDS011;44385;51.992;4.206;2023-08-01T00:24:23;10.50;;;3.83;;
58615;SDS011;44385;51.992;4.206;2023-08-01T00:26:49;10.43;;;4.35;;
58615;SDS011;44385;51.992;4.206;2023-08-01T00:29:16;10.77;;;4.13;;
58615;SDS011;44385;51.992;4.206;2023-08-01T00:31:44;8.95;;;3.83;;
58615;SDS011;44385;51.992;4.206;2023-08-01T00:34:10;13.40;;;3.70;;
58615;SDS011;44385;51.992;4.206;2023-08-01T00:36:38;11.15;;;3.67;;
58615;SDS011;44385;51.992;4.206;2023-08-01T00:39:05;10.43;;;3.60;;
58615;SDS011;44385;51.992;4.206;2023-08-01T00:41:31;16.95;;;4.38;;
58615;SDS011;44385;51.992;4.206;2023-08-01T00:43:58;6.80;;;3.63;;
58615;SDS011;44385;51.992;4.206;2023-08-01T00:46:24;11.35;;;3.50;;
58615;SDS011;44385;51.992;4.206;2023-08-01T00:48:51;8.70;;;4.00;;
58615;SDS011;44385;51.992;4.206;2023-08-01T00:51:18;8.10;;;3.70;;
58615;SDS011;44385;51.992;4.206;2023-08-01T00:53:46;6.40;;;3.40;;
58615;SDS011;44385;51.992;4.206;2023-08-01T00:56:12;11.20;;;4.03;;
58615;SDS011;44385;51.992;4.206;2023-08-01T00:58:39;9.32;;;3.28;;
58615;SDS011;44385;51.992;4.206;2023-08-01T01:01:05;11.18;;;3.70;;
58615;SDS011;44385;51.992;4.206;2023-08-01T01:03:32;8.63;;;3.85;;
58615;SDS011;44385;51.992;4.206;2023-08-01T01:06:01;9.77;;;3.58;;
58615;SDS011;44385;51.992;4.206;2023-08-01T01:08:27;10.23;;;4.45;;
58615;SDS011;44385;51.992;4.206;2023-08-01T01:10:56;11.13;;;3.65;;
58615;SDS011;44385;51.992;4.206;2023-08-01T01:13:22;8.43;;;3.50;;
58615;SDS011;44385;51.992;4.206;2023-08-01T01:15:49;13.98;;;4.13;;
58615;SDS011;44385;51.992;4.206;2023-08-01T01:18:15;13.27;;;4.57;;
58615;SDS011;44385;51.992;4.206;2023-08-01T01:20:43;12.52;;;3.78;;
58615;SDS011;44385;51.992;4.206;2023-08-01T01:23:09;10.82;;;3.90;;
58615;SDS011;44385;51.992;4.206;2023-08-01T01:25:37;9.80;;;3.47;;
58615;SDS011;44385;51.992;4.206;2023-08-01T01:28:04;12.57;;;3.50;;
58615;SDS011;44385;51.992;4.206;2023-08-01T01:30:32;9.40;;;3.70;;
58615;SDS011;44385;51.992;4.206;2023-08-01T01:32:59;10.95;;;3.38;;
58615;SDS011;44385;51.992;4.206;2023-08-01T01:35:26;14.68;;;4.03;;
58615;SDS011;44385;51.992;4.206;2023-08-01T01:37:53;15.48;;;4.00;;
58615;SDS011;44385;51.992;4.206;2023-08-01T01:40:20;12.93;;;4.40;;
58615;SDS011;44385;51.992;4.206;2023-08-01T01:42:46;10.75;;;4.45;;
58615;SDS011;44385;51.992;4.206;2023-08-01T01:45:14;9.68;;;3.58;;
58615;SDS011;44385;51.992;4.206;2023-08-01T01:47:40;9.02;;;3.95;;
58615;SDS011;44385;51.992;4.206;2023-08-01T01:50:07;13.68;;;3.88;;
58615;SDS011;44385;51.992;4.206;2023-08-01T01:52:33;10.77;;;4.38;;
58615;SDS011;44385;51.992;4.206;2023-08-01T01:55:01;9.20;;;3.58;;
58615;SDS011;44385;51.992;4.206;2023-08-01T01:57:27;9.60;;;3.92;;
58615;SDS011;44385;51.992;4.206;2023-08-01T01:59:53;10.23;;;4.40;;
58615;SDS011;44385;51.992;4.206;2023-08-01T02:02:20;14.18;;;4.50;;
58615;SDS011;44385;51.992;4.206;2023-08-01T02:04:46;7.05;;;3.90;;
58615;SDS011;44385;51.992;4.206;2023-08-01T02:07:13;13.45;;;5.05;;
58615;SDS011;44385;51.992;4.206;2023-08-01T02:09:40;12.13;;;4.63;;
58615;SDS011;44385;51.992;4.206;2023-08-01T02:12:08;14.07;;;4.38;;
58615;SDS011;44385;51.992;4.206;2023-08-01T02:14:35;12.20;;;5.10;;
58615;SDS011;44385;51.992;4.206;2023-08-01T02:17:01;12.02;;;4.00;;
58615;SDS011;44385;51.992;4.206;2023-08-01T02:19:28;13.15;;;4.25;;
58615;SDS011;44385;51.992;4.206;2023-08-01T02:21:55;9.60;;;4.50;;
58615;SDS011;44385;51.992;4.206;2023-08-01T02:24:22;12.60;;;4.43;;
58615;SDS011;44385;51.992;4.206;2023-08-01T02:26:48;14.40;;;4.35;;
58615;SDS011;44385;51.992;4.206;2023-08-01T02:29:16;10.57;;;4.38;;
58615;SDS011;44385;51.992;4.206;2023-08-01T02:31:43;10.98;;;4.55;;
58615;SDS011;44385;51.992;4.206;2023-08-01T02:34:09;12.65;;;5.38;;
58615;SDS011;44385;51.992;4.206;2023-08-01T02:36:35;17.90;;;7.38;;
58615;SDS011;44385;51.992;4.206;2023-08-01T02:39:02;14.48;;;4.88;;
58615;SDS011;44385;51.992;4.206;2023-08-01T02:41:28;13.50;;;5.25;;
58615;SDS011;44385;51.992;4.206;2023-08-01T02:43:55;13.15;;;4.32;;
58615;SDS011;44385;51.992;4.206;2023-08-01T02:46:23;12.35;;;4.63;;
58615;SDS011;44385;51.992;4.206;2023-08-01T02:48:52;12.05;;;5.25;;
58615;SDS011;44385;51.992;4.206;2023-08-01T02:51:18;18.17;;;5.28;;
58615;SDS011;44385;51.992;4.206;2023-08-01T02:53:44;10.65;;;5.35;;
58615;SDS011;44385;51.992;4.206;2023-08-01T02:56:11;12.38;;;4.35;;
58615;SDS011;44385;51.992;4.206;2023-08-01T02:58:38;18.63;;;5.82;;
58615;SDS011;44385;51.992;4.206;2023-08-01T03:01:06;11.43;;;4.90;;
58615;SDS011;44385;51.992;4.206;2023-08-01T03:03:35;13.82;;;4.88;;
58615;SDS011;44385;51.992;4.206;2023-08-01T03:06:02;14.27;;;5.65;;
58615;SDS011;44385;51.992;4.206;2023-08-01T03:08:28;18.85;;;5.95;;
58615;SDS011;44385;51.992;4.206;2023-08-01T03:10:56;18.50;;;6.95;;
58615;SDS011;44385;51.992;4.206;2023-08-01T03:13:22;12.30;;;4.38;;
58615;SDS011;44385;51.992;4.206;2023-08-01T03:15:49;15.20;;;5.32;;
58615;SDS011;44385;51.992;4.206;2023-08-01T03:18:15;16.70;;;5.07;;
58615;SDS011;44385;51.992;4.206;2023-08-01T03:20:43;13.52;;;5.28;;
58615;SDS011;44385;51.992;4.206;2023-08-01T03:23:09;16.85;;;5.05;;
58615;SDS011;44385;51.992;4.206;2023-08-01T03:25:36;16.23;;;5.25;;
58615;SDS011;44385;51.992;4.206;2023-08-01T03:28:03;14.60;;;4.85;;
58615;SDS011;44385;51.992;4.206;2023-08-01T03:30:31;16.27;;;5.55;;
58615;SDS011;44385;51.992;4.206;2023-08-01T03:32:57;14.63;;;4.72;;
58615;SDS011;44385;51.992;4.206;2023-08-01T03:35:23;16.35;;;5.03;;
58615;SDS011;44385;51.992;4.206;2023-08-01T03:37:51;14.95;;;4.60;;
58615;SDS011;44385;51.992;4.206;2023-08-01T03:40:17;11.90;;;4.50;;
58615;SDS011;44385;51.992;4.206;2023-08-01T03:42:44;7.43;;;3.90;;
58615;SDS011;44385;51.992;4.206;2023-08-01T03:45:11;10.95;;;4.82;;
58615;SDS011;44385;51.992;4.206;2023-08-01T03:47:37;9.88;;;3.65;;
58615;SDS011;44385;51.992;4.206;2023-08-01T03:50:05;9.27;;;3.75;;
58615;SDS011;44385;51.992;4.206;2023-08-01T03:52:31;9.93;;;4.00;;
58615;SDS011;44385;51.992;4.206;2023-08-01T03:54:59;8.27;;;4.28;;
58615;SDS011;44385;51.992;4.206;2023-08-01T03:57:26;11.57;;;3.90;;
58615;SDS011;44385;51.992;4.206;2023-08-01T03:59:52;8.07;;;3.80;;
58615;SDS011;44385;51.992;4.206;2023-08-01T04:02:18;14.20;;;3.85;;
58615;SDS011;44385;51.992;4.206;2023-08-01T04:04:45;9.80;;;3.88;;
58615;SDS011;44385;51.992;4.206;2023-08-01T04:07:11;12.48;;;4.22;;
58615;SDS011;44385;51.992;4.206;2023-08-01T04:09:38;12.55;;;4.57;;
58615;SDS011;44385;51.992;4.206;2023-08-01T04:12:06;16.10;;;5.55;;
58615;SDS011;44385;51.992;4.206;2023-08-01T04:14:32;10.85;;;4.25;;
58615;SDS011;44385;51.992;4.206;2023-08-01T04:16:59;13.02;;;4.03;;
58615;SDS011;44385;51.992;4.206;2023-08-01T04:19:26;9.57;;;3.67;;
58615;SDS011;44385;51.992;4.206;2023-08-01T04:21:52;9.20;;;3.58;;
58615;SDS011;44385;51.992;4.206;2023-08-01T04:24:18;8.15;;;3.00;;
58615;SDS011;44385;51.992;4.206;2023-08-01T04:26:45;9.90;;;2.92;;
58615;SDS011;44385;51.992;4.206;2023-08-01T04:29:13;10.15;;;4.03;;
58615;SDS011;44385;51.992;4.206;2023-08-01T04:31:40;10.25;;;4.07;;
58615;SDS011;44385;51.992;4.206;2023-08-01T04:34:06;9.70;;;3.55;;
58615;SDS011;44385;51.992;4.206;2023-08-01T04:36:33;11.35;;;3.50;;
58615;SDS011;44385;51.992;4.206;2023-08-01T04:38:59;11.55;;;3.85;;
58615;SDS011;44385;51.992;4.206;2023-08-01T04:41:25;11.73;;;4.07;;
58615;SDS011;44385;51.992;4.206;2023-08-01T04:43:53;8.85;;;3.08;;
58615;SDS011;44385;51.992;4.206;2023-08-01T04:46:20;13.68;;;4.65;;
58615;SDS011;44385;51.992;4.206;2023-08-01T04:48:47;11.90;;;4.10;;
58615;SDS011;44385;51.992;4.206;2023-08-01T04:51:13;12.18;;;3.75;;
58615;SDS011;44385;51.992;4.206;2023-08-01T04:53:40;12.65;;;3.67;;
58615;SDS011;44385;51.992;4.206;2023-08-01T04:56:06;8.20;;;3.38;;
58615;SDS011;44385;51.992;4.206;2023-08-01T04:58:32;7.70;;;3.30;;
58615;SDS011;44385;51.992;4.206;2023-08-01T05:00:58;11.93;;;5.00;;
58615;SDS011;44385;51.992;4.206;2023-08-01T05:03:26;10.70;;;3.67;;
58615;SDS011;44385;51.992;4.206;2023-08-01T05:05:53;12.73;;;4.38;;
58615;SDS011;44385;51.992;4.206;2023-08-01T05:08:19;9.75;;;3.63;;
58615;SDS011;44385;51.992;4.206;2023-08-01T05:10:45;16.83;;;3.83;;
58615;SDS011;44385;51.992;4.206;2023-08-01T05:13:12;10.45;;;3.95;;
58615;SDS011;44385;51.992;4.206;2023-08-01T05:15:38;12.98;;;4.13;;
58615;SDS011;44385;51.992;4.206;2023-08-01T05:18:04;9.77;;;3.38;;
58615;SDS011;44385;51.992;4.206;2023-08-01T05:20:32;13.57;;;3.90;;
58615;SDS011;44385;51.992;4.206;2023-08-01T05:22:59;11.55;;;3.40;;
58615;SDS011;44385;51.992;4.206;2023-08-01T05:25:25;8.63;;;3.50;;
58615;SDS011;44385;51.992;4.206;2023-08-01T05:27:52;11.98;;;3.83;;
58615;SDS011;44385;51.992;4.206;2023-08-01T05:30:18;13.32;;;4.25;;
58615;SDS011;44385;51.992;4.206;2023-08-01T05:32:44;9.45;;;3.95;;
58615;SDS011;44385;51.992;4.206;2023-08-01T05:35:12;9.88;;;3.83;;
58615;SDS011;44385;51.992;4.206;2023-08-01T05:37:39;16.20;;;5.03;;
58615;SDS011;44385;51.992;4.206;2023-08-01T05:40:06;9.50;;;4.15;;
58615;SDS011;44385;51.992;4.206;2023-08-01T05:42:33;14.00;;;3.50;;
58615;SDS011;44385;51.992;4.206;2023-08-01T05:44:59;9.80;;;3.30;;
58615;SDS011;44385;51.992;4.206;2023-08-01T05:47:26;8.73;;;3.63;;
58615;SDS011;44385;51.992;4.206;2023-08-01T05:49:52;12.45;;;3.55;;
58615;SDS011;44385;51.992;4.206;2023-08-01T05:52:19;11.52;;;3.95;;
58615;SDS011;44385;51.992;4.206;2023-08-01T05:54:46;10.40;;;3.42;;
58615;SDS011;44385;51.992;4.206;2023-08-01T05:57:13;10.55;;;3.42;;
58615;SDS011;44385;51.992;4.206;2023-08-01T05:59:39;8.57;;;3.72;;
58615;SDS011;44385;51.992;4.206;2023-08-01T06:02:06;8.75;;;3.70;;
58615;SDS011;44385;51.992;4.206;2023-08-01T06:04:33;7.55;;;3.47;;
58615;SDS011;44385;51.992;4.206;2023-08-01T06:07:02;10.35;;;3.55;;
58615;SDS011;44385;51.992;4.206;2023-08-01T06:09:28;14.48;;;3.72;;
58615;SDS011;44385;51.992;4.206;2023-08-01T06:11:57;9.45;;;4.18;;
58615;SDS011;44385;51.992;4.206;2023-08-01T06:14:23;11.77;;;3.25;;
58615;SDS011;44385;51.992;4.206;2023-08-01T06:16:50;9.48;;;3.60;;
58615;SDS011;44385;51.992;4.206;2023-08-01T06:19:16;13.07;;;3.85;;
58615;SDS011;44385;51.992;4.206;2023-08-01T06:21:43;9.68;;;3.55;;
58615;SDS011;44385;51.992;4.206;2023-08-01T06:24:09;6.72;;;3.70;;
58615;SDS011;44385;51.992;4.206;2023-08-01T06:26:36;12.10;;;3.78;;
58615;SDS011;44385;51.992;4.206;2023-08-01T06:29:04;11.43;;;3.78;;
58615;SDS011;44385;51.992;4.206;2023-08-01T06:31:31;7.35;;;3.25;;
58615;SDS011;44385;51.992;4.206;2023-08-01T06:33:57;9.50;;;3.65;;
58615;SDS011;44385;51.992;4.206;2023-08-01T06:36:24;10.77;;;4.28;;
58615;SDS011;44385;51.992;4.206;2023-08-01T06:38:50;10.45;;;3.90;;
58615;SDS011;44385;51.992;4.206;2023-08-01T06:41:16;10.10;;;3.75;;
58615;SDS011;44385;51.992;4.206;2023-08-01T06:43:43;9.65;;;3.38;;
58615;SDS011;44385;51.992;4.206;2023-08-01T06:46:10;13.85;;;3.83;;
58615;SDS011;44385;51.992;4.206;2023-08-01T06:48:38;8.63;;;3.20;;
58615;SDS011;44385;51.992;4.206;2023-08-01T06:51:04;11.65;;;3.70;;
58615;SDS011;44385;51.992;4.206;2023-08-01T06:53:31;8.27;;;3.20;;
58615;SDS011;44385;51.992;4.206;2023-08-01T06:55:57;7.95;;;3.60;;
58615;SDS011;44385;51.992;4.206;2023-08-01T06:58:24;10.02;;;4.03;;
58615;SDS011;44385;51.992;4.206;2023-08-01T07:00:50;9.02;;;3.50;;
58615;SDS011;44385;51.992;4.206;2023-08-01T07:03:18;10.48;;;3.70;;
58615;SDS011;44385;51.992;4.206;2023-08-01T07:05:45;9.27;;;3.30;;
58615;SDS011;44385;51.992;4.206;2023-08-01T07:08:11;13.98;;;3.45;;
58615;SDS011;44385;51.992;4.206;2023-08-01T07:10:38;10.07;;;3.85;;
58615;SDS011;44385;51.992;4.206;2023-08-01T07:13:04;14.48;;;4.05;;
58615;SDS011;44385;51.992;4.206;2023-08-01T07:15:31;9.65;;;3.28;;
58615;SDS011;44385;51.992;4.206;2023-08-01T07:17:58;7.00;;;3.22;;
58615;SDS011;44385;51.992;4.206;2023-08-01T07:20:26;8.35;;;2.60;;
58615;SDS011;44385;51.992;4.206;2023-08-01T07:22:52;9.07;;;3.10;;
58615;SDS011;44385;51.992;4.206;2023-08-01T07:25:18;9.38;;;2.97;;
58615;SDS011;44385;51.992;4.206;2023-08-01T07:27:45;10.40;;;3.30;;
58615;SDS011;44385;51.992;4.206;2023-08-01T07:30:11;4.72;;;2.88;;
58615;SDS011;44385;51.992;4.206;2023-08-01T07:32:38;10.55;;;3.35;;
58615;SDS011;44385;51.992;4.206;2023-08-01T07:35:05;15.35;;;3.40;;
58615;SDS011;44385;51.992;4.206;2023-08-01T07:37:33;10.38;;;3.25;;
58615;SDS011;44385;51.992;4.206;2023-08-01T07:39:59;6.65;;;3.47;;
58615;SDS011;44385;51.992;4.206;2023-08-01T07:42:26;9.18;;;3.72;;
58615;SDS011;44385;51.992;4.206;2023-08-01T07:44:52;14.50;;;3.67;;
58615;SDS011;44385;51.992;4.206;2023-08-01T07:47:19;11.77;;;3.42;;
58615;SDS011;44385;51.992;4.206;2023-08-01T07:49:45;10.30;;;3.60;;
58615;SDS011;44385;51.992;4.206;2023-08-01T07:52:11;10.77;;;2.97;;
58615;SDS011;44385;51.992;4.206;2023-08-01T07:54:39;9.75;;;3.08;;
58615;SDS011;44385;51.992;4.206;2023-08-01T07:57:06;10.85;;;3.08;;
58615;SDS011;44385;51.992;4.206;2023-08-01T07:59:32;10.77;;;3.25;;
58615;SDS011;44385;51.992;4.206;2023-08-01T08:01:58;10.80;;;3.55;;
58615;SDS011;44385;51.992;4.206;2023-08-01T08:04:25;7.55;;;2.92;;
58615;SDS011;44385;51.992;4.206;2023-08-01T08:06:51;9.43;;;2.97;;
58615;SDS011;44385;51.992;4.206;2023-08-01T08:09:19;13.10;;;3.77;;
58615;SDS011;44385;51.992;4.206;2023-08-01T08:11:49;11.23;;;4.00;;
58615;SDS011;44385;51.992;4.206;2023-08-01T08:14:16;11.00;;;3.78;;
58615;SDS011;44385;51.992;4.206;2023-08-01T08:16:42;12.38;;;3.58;;
58615;SDS011;44385;51.992;4.206;2023-08-01T08:19:08;9.13;;;3.95;;
58615;SDS011;44385;51.992;4.206;2023-08-01T08:21:35;11.18;;;3.65;;
58615;SDS011;44385;51.992;4.206;2023-08-01T08:24:01;10.77;;;3.45;;
58615;SDS011;44385;51.992;4.206;2023-08-01T08:26:27;9.57;;;2.72;;
58615;SDS011;44385;51.992;4.206;2023-08-01T08:28:57;9.07;;;2.73;;
58615;SDS011;44385;51.992;4.206;2023-08-01T08:31:24;11.23;;;3.45;;
58615;SDS011;44385;51.992;4.206;2023-08-01T08:33:50;6.53;;;3.03;;
58615;SDS011;44385;51.992;4.206;2023-08-01T08:36:17;10.20;;;3.35;;
58615;SDS011;44385;51.992;4.206;2023-08-01T08:38:43;8.20;;;3.03;;
58615;SDS011;44385;51.992;4.206;2023-08-01T08:41:10;9.02;;;3.38;;
58615;SDS011;44385;51.992;4.206;2023-08-01T08:43:36;7.90;;;2.92;;
58615;SDS011;44385;51.992;4.206;2023-08-01T08:46:05;15.48;;;3.55;;
58615;SDS011;44385;51.992;4.206;2023-08-01T08:48:32;10.48;;;4.80;;
58615;SDS011;44385;51.992;4.206;2023-08-01T08:50:59;8.35;;;2.92;;
58615;SDS011;44385;51.992;4.206;2023-08-01T08:53:26;11.90;;;3.60;;
58615;SDS011;44385;51.992;4.206;2023-08-01T08:55:52;12.00;;;3.65;;
58615;SDS011;44385;51.992;4.206;2023-08-01T08:58:19;15.57;;;3.65;;
58615;SDS011;44385;51.992;4.206;2023-08-01T09:00:46;12.75;;;3.45;;
58615;SDS011;44385;51.992;4.206;2023-08-01T09:03:13;6.65;;;3.22;;
58615;SDS011;44385;51.992;4.206;2023-08-01T09:05:40;11.93;;;3.55;;
58615;SDS011;44385;51.992;4.206;2023-08-01T09:10:35;9.32;;;3.47;;
58615;SDS011;44385;51.992;4.206;2023-08-01T09:13:02;9.93;;;3.72;;
58615;SDS011;44385;51.992;4.206;2023-08-01T09:15:28;11.02;;;3.22;;
58615;SDS011;44385;51.992;4.206;2023-08-01T09:17:56;7.40;;;3.10;;
58615;SDS011;44385;51.992;4.206;2023-08-01T09:20:27;10.77;;;3.22;;
58615;SDS011;44385;51.992;4.206;2023-08-01T09:22:53;8.87;;;3.53;;
58615;SDS011;44385;51.992;4.206;2023-08-01T09:25:20;11.60;;;3.60;;
58615;SDS011;44385;51.992;4.206;2023-08-01T09:27:56;12.40;;;2.72;;
58615;SDS011;44385;51.992;4.206;2023-08-01T09:30:23;8.40;;;3.03;;
58615;SDS011;44385;51.992;4.206;2023-08-01T09:32:52;11.18;;;3.22;;
58615;SDS011;44385;51.992;4.206;2023-08-01T09:35:19;7.28;;;2.83;;
58615;SDS011;44385;51.992;4.206;2023-08-01T09:37:48;7.45;;;2.55;;
58615;SDS011;44385;51.992;4.206;2023-08-01T09:40:14;10.95;;;3.10;;
58615;SDS011;44385;51.992;4.206;2023-08-01T09:42:41;9.15;;;2.88;;
58615;SDS011;44385;51.992;4.206;2023-08-01T09:45:14;13.27;;;3.05;;
58615;SDS011;44385;51.992;4.206;2023-08-01T09:47:41;9.77;;;2.83;;
58615;SDS011;44385;51.992;4.206;2023-08-01T09:50:08;9.35;;;3.25;;
58615;SDS011;44385;51.992;4.206;2023-08-01T09:52:35;10.25;;;2.65;;
58615;SDS011;44385;51.992;4.206;2023-08-01T09:55:03;7.60;;;2.55;;
58615;SDS011;44385;51.992;4.206;2023-08-01T09:57:32;11.43;;;3.42;;
58615;SDS011;44385;51.992;4.206;2023-08-01T10:00:00;8.02;;;2.78;;
58615;SDS011;44385;51.992;4.206;2023-08-01T10:02:28;9.00;;;3.33;;
58615;SDS011;44385;51.992;4.206;2023-08-01T10:04:57;7.03;;;2.30;;
58615;SDS011;44385;51.992;4.206;2023-08-01T10:07:24;12.38;;;3.47;;
58615;SDS011;44385;51.992;4.206;2023-08-01T10:09:51;8.85;;;2.53;;
58615;SDS011;44385;51.992;4.206;2023-08-01T10:12:20;8.45;;;2.53;;
58615;SDS011;44385;51.992;4.206;2023-08-01T10:14:48;12.63;;;3.15;;
58615;SDS011;44385;51.992;4.206;2023-08-01T10:17:15;10.65;;;3.33;;
58615;SDS011;44385;51.992;4.206;2023-08-01T10:19:42;5.20;;;2.22;;
58615;SDS011;44385;51.992;4.206;2023-08-01T10:22:09;10.65;;;2.97;;
58615;SDS011;44385;51.992;4.206;2023-08-01T10:24:35;8.07;;;3.03;;
58615;SDS011;44385;51.992;4.206;2023-08-01T10:27:11;15.35;;;3.03;;
58615;SDS011;44385;51.992;4.206;2023-08-01T10:29:39;10.77;;;3.10;;
58615;SDS011;44385;51.992;4.206;2023-08-01T10:32:06;8.95;;;2.70;;
58615;SDS011;44385;51.992;4.206;2023-08-01T10:34:32;7.75;;;2.78;;
58615;SDS011;44385;51.992;4.206;2023-08-01T10:37:00;7.60;;;2.60;;
58615;SDS011;44385;51.992;4.206;2023-08-01T10:39:27;6.00;;;2.58;;
58615;SDS011;44385;51.992;4.206;2023-08-01T10:41:57;5.47;;;2.40;;
58615;SDS011;44385;51.992;4.206;2023-08-01T10:44:23;7.40;;;2.33;;
58615;SDS011;44385;51.992;4.206;2023-08-01T10:46:52;8.20;;;2.90;;
58615;SDS011;44385;51.992;4.206;2023-08-01T10:49:19;8.05;;;2.38;;
58615;SDS011;44385;51.992;4.206;2023-08-01T10:51:46;9.43;;;2.65;;
58615;SDS011;44385;51.992;4.206;2023-08-01T10:54:20;7.20;;;3.35;;
58615;SDS011;44385;51.992;4.206;2023-08-01T10:56:47;8.20;;;2.58;;
58615;SDS011;44385;51.992;4.206;2023-08-01T10:59:14;8.30;;;2.10;;
58615;SDS011;44385;51.992;4.206;2023-08-01T11:01:44;6.22;;;2.00;;
58615;SDS011;44385;51.992;4.206;2023-08-01T11:04:16;11.02;;;2.75;;
58615;SDS011;44385;51.992;4.206;2023-08-01T11:06:43;3.85;;;1.90;;
58615;SDS011;44385;51.992;4.206;2023-08-01T11:09:14;5.72;;;2.25;;
58615;SDS011;44385;51.992;4.206;2023-08-01T11:11:41;6.60;;;2.08;;
58615;SDS011;44385;51.992;4.206;2023-08-01T11:14:07;5.72;;;2.00;;
58615;SDS011;44385;51.992;4.206;2023-08-01T11:16:33;5.63;;;2.00;;
58615;SDS011;44385;51.992;4.206;2023-08-01T11:19:00;9.30;;;2.92;;
58615;SDS011;44385;51.992;4.206;2023-08-01T11:21:28;10.10;;;2.40;;
58615;SDS011;44385;51.992;4.206;2023-08-01T11:24:00;13.70;;;3.90;;
58615;SDS011;44385;51.992;4.206;2023-08-01T11:26:32;7.43;;;2.53;;
58615;SDS011;44385;51.992;4.206;2023-08-01T11:29:00;9.90;;;2.13;;
58615;SDS011;44385;51.992;4.206;2023-08-01T11:31:27;8.43;;;2.58;;
58615;SDS011;44385;51.992;4.206;2023-08-01T11:33:56;6.90;;;2.33;;
58615;SDS011;44385;51.992;4.206;2023-08-01T11:38:50;9.55;;;2.83;;
58615;SDS011;44385;51.992;4.206;2023-08-01T11:41:16;9.40;;;2.75;;
58615;SDS011;44385;51.992;4.206;2023-08-01T11:43:43;7.55;;;2.33;;
58615;SDS011;44385;51.992;4.206;2023-08-01T11:46:09;8.75;;;2.03;;
58615;SDS011;44385;51.992;4.206;2023-08-01T11:48:36;8.68;;;2.60;;
58615;SDS011;44385;51.992;4.206;2023-08-01T11:51:03;10.85;;;2.35;;
58615;SDS011;44385;51.992;4.206;2023-08-01T11:53:30;8.13;;;2.90;;
58615;SDS011;44385;51.992;4.206;2023-08-01T11:56:04;6.00;;;2.28;;
58615;SDS011;44385;51.992;4.206;2023-08-01T11:58:31;6.88;;;2.28;;
58615;SDS011;44385;51.992;4.206;2023-08-01T12:01:04;9.07;;;3.53;;
58615;SDS011;44385;51.992;4.206;2023-08-01T12:03:31;8.73;;;2.10;;
58615;SDS011;44385;51.992;4.206;2023-08-01T12:06:04;6.97;;;2.15;;
58615;SDS011;44385;51.992;4.206;2023-08-01T12:08:33;7.43;;;2.45;;
58615;SDS011;44385;51.992;4.206;2023-08-01T12:10:59;6.32;;;2.15;;
58615;SDS011;44385;51.992;4.206;2023-08-01T12:13:27;5.32;;;2.38;;
58615;SDS011;44385;51.992;4.206;2023-08-01T12:15:54;12.95;;;2.90;;
58615;SDS011;44385;51.992;4.206;2023-08-01T12:18:21;5.97;;;2.08;;
58615;SDS011;44385;51.992;4.206;2023-08-01T12:20:47;8.38;;;2.80;;
58615;SDS011;44385;51.992;4.206;2023-08-01T12:23:14;6.70;;;2.50;;
58615;SDS011;44385;51.992;4.206;2023-08-01T12:25:40;6.38;;;1.98;;
58615;SDS011;44385;51.992;4.206;2023-08-01T12:28:07;8.23;;;2.47;;
58615;SDS011;44385;51.992;4.206;2023-08-01T12:30:34;7.85;;;2.47;;
58615;SDS011;44385;51.992;4.206;2023-08-01T12:33:01;11.80;;;2.70;;
58615;SDS011;44385;51.992;4.206;2023-08-01T12:35:27;5.50;;;2.20;;
58615;SDS011;44385;51.992;4.206;2023-08-01T12:37:53;10.25;;;3.70;;
58615;SDS011;44385;51.992;4.206;2023-08-01T12:40:20;7.07;;;2.28;;
58615;SDS011;44385;51.992;4.206;2023-08-01T12:42:46;8.45;;;2.58;;
58615;SDS011;44385;51.992;4.206;2023-08-01T12:45:13;7.40;;;2.78;;
58615;SDS011;44385;51.992;4.206;2023-08-01T12:47:41;8.35;;;2.30;;
58615;SDS011;44385;51.992;4.206;2023-08-01T12:50:07;6.15;;;2.10;;
58615;SDS011;44385;51.992;4.206;2023-08-01T12:52:34;3.50;;;1.83;;
58615;SDS011;44385;51.992;4.206;2023-08-01T12:55:00;5.78;;;2.28;;
58615;SDS011;44385;51.992;4.206;2023-08-01T12:57:27;5.00;;;2.10;;
58615;SDS011;44385;51.992;4.206;2023-08-01T12:59:53;10.10;;;2.13;;
58615;SDS011;44385;51.992;4.206;2023-08-01T13:02:19;7.63;;;2.08;;
58615;SDS011;44385;51.992;4.206;2023-08-01T13:04:47;7.03;;;2.40;;
58615;SDS011;44385;51.992;4.206;2023-08-01T13:07:13;4.72;;;2.03;;
58615;SDS011;44385;51.992;4.206;2023-08-01T13:09:40;6.13;;;2.13;;
58615;SDS011;44385;51.992;4.206;2023-08-01T13:12:06;8.10;;;2.60;;
58615;SDS011;44385;51.992;4.206;2023-08-01T13:14:33;6.85;;;2.20;;
58615;SDS011;44385;51.992;4.206;2023-08-01T13:17:00;5.55;;;2.00;;
58615;SDS011;44385;51.992;4.206;2023-08-01T13:19:26;8.00;;;2.85;;
58615;SDS011;44385;51.992;4.206;2023-08-01T13:21:54;7.53;;;2.25;;
58615;SDS011;44385;51.992;4.206;2023-08-01T13:24:21;5.95;;;1.85;;
58615;SDS011;44385;51.992;4.206;2023-08-01T13:26:47;7.75;;;2.53;;
58615;SDS011;44385;51.992;4.206;2023-08-01T13:29:14;6.53;;;2.22;;
58615;SDS011;44385;51.992;4.206;2023-08-01T13:31:40;4.30;;;1.90;;
58615;SDS011;44385;51.992;4.206;2023-08-01T13:34:07;8.75;;;2.33;;
58615;SDS011;44385;51.992;4.206;2023-08-01T13:36:34;6.40;;;2.25;;
58615;SDS011;44385;51.992;4.206;2023-08-01T13:39:01;10.35;;;2.38;;
58615;SDS011;44385;51.992;4.206;2023-08-01T13:41:28;5.93;;;2.22;;
58615;SDS011;44385;51.992;4.206;2023-08-01T13:43:57;5.40;;;1.85;;
58615;SDS011;44385;51.992;4.206;2023-08-01T13:46:23;7.53;;;1.85;;
58615;SDS011;44385;51.992;4.206;2023-08-01T13:48:49;4.95;;;1.70;;
58615;SDS011;44385;51.992;4.206;2023-08-01T13:51:16;8.00;;;2.35;;
58615;SDS011;44385;51.992;4.206;2023-08-01T13:53:42;7.88;;;2.20;;
58615;SDS011;44385;51.992;4.206;2023-08-01T13:56:10;8.25;;;2.30;;
58615;SDS011;44385;51.992;4.206;2023-08-01T13:58:37;4.95;;;2.10;;
58615;SDS011;44385;51.992;4.206;2023-08-01T14:01:04;8.20;;;2.30;;
58615;SDS011;44385;51.992;4.206;2023-08-01T14:03:32;8.10;;;1.80;;
58615;SDS011;44385;51.992;4.206;2023-08-01T14:06:02;4.70;;;1.90;;
58615;SDS011;44385;51.992;4.206;2023-08-01T14:08:29;6.35;;;1.80;;
58615;SDS011;44385;51.992;4.206;2023-08-01T14:10:56;7.55;;;2.45;;
58615;SDS011;44385;51.992;4.206;2023-08-01T14:13:24;10.90;;;2.85;;
58615;SDS011;44385;51.992;4.206;2023-08-01T14:15:50;6.70;;;1.98;;
58615;SDS011;44385;51.992;4.206;2023-08-01T14:18:16;12.27;;;2.42;;
58615;SDS011;44385;51.992;4.206;2023-08-01T14:20:43;8.10;;;2.67;;
58615;SDS011;44385;51.992;4.206;2023-08-01T14:23:09;6.72;;;2.03;;
58615;SDS011;44385;51.992;4.206;2023-08-01T14:25:36;3.78;;;1.70;;
58615;SDS011;44385;51.992;4.206;2023-08-01T14:28:03;6.50;;;1.90;;
58615;SDS011;44385;51.992;4.206;2023-08-01T14:30:31;7.10;;;2.45;;
58615;SDS011;44385;51.992;4.206;2023-08-01T14:32:58;9.38;;;2.38;;
58615;SDS011;44385;51.992;4.206;2023-08-01T14:35:25;8.63;;;2.15;;
58615;SDS011;44385;51.992;4.206;2023-08-01T14:37:52;7.60;;;2.10;;
58615;SDS011;44385;51.992;4.206;2023-08-01T14:40:20;6.45;;;2.08;;
58615;SDS011;44385;51.992;4.206;2023-08-01T14:42:46;5.88;;;2.00;;
58615;SDS011;44385;51.992;4.206;2023-08-01T14:45:13;7.05;;;2.00;;